sensor_id;sensor_type;location;lat;lon;timestamp;P1;durP1;ratioP1;P2;durP2;ratioP2
29824;SDS011;16713;52.916;12.834;2022-12-17T00:01:30;70.30;;;30.33;;
29824;SDS011;16713;52.916;12.834;2022-12-17T00:04:17;65.25;;;28.40;;
29824;SDS011;16713;52.916;12.834;2022-12-17T00:07:02;66.18;;;28.52;;
29824;SDS011;16713;52.916;12.834;2022-12-17T00:09:47;71.50;;;30.35;;
29824;SDS011;16713;52.916;12.834;2022-12-17T00:12:32;71.93;;;31.02;;
29824;SDS011;16713;52.916;12.834;2022-12-17T00:15:17;74.97;;;32.88;;
29824;SDS011;16713;52.916;12.834;2022-12-17T00:18:05;90.75;;;37.13;;
29824;SDS011;16713;52.916;12.834;2022-12-17T00:20:54;91.18;;;39.13;;
29824;SDS011;16713;52.916;12.834;2022-12-17T00:23:40;93.97;;;37.53;;
29824;SDS011;16713;52.916;12.834;2022-12-17T00:26:26;110.88;;;43.60;;
29824;SDS011;16713;52.916;12.834;2022-12-17T00:29:11;104.10;;;42.58;;
29824;SDS011;16713;52.916;12.834;2022-12-17T00:31:56;113.05;;;42.70;;
29824;SDS011;16713;52.916;12.834;2022-12-17T00:34:42;116.93;;;45.55;;
29824;SDS011;16713;52.916;12.834;2022-12-17T00:37:27;106.80;;;43.13;;
29824;SDS011;16713;52.916;12.834;2022-12-17T00:40:12;109.38;;;40.60;;
29824;SDS011;16713;52.916;12.834;2022-12-17T00:43:04;109.90;;;41.13;;
29824;SDS011;16713;52.916;12.834;2022-12-17T00:45:52;112.03;;;42.53;;
29824;SDS011;16713;52.916;12.834;2022-12-17T00:48:37;117.63;;;43.65;;
29824;SDS011;16713;52.916;12.834;2022-12-17T00:51:23;113.43;;;42.45;;
29824;SDS011;16713;52.916;12.834;2022-12-17T00:54:08;113.65;;;44.80;;
29824;SDS011;16713;52.916;12.834;2022-12-17T00:56:53;111.78;;;44.25;;
29824;SDS011;16713;52.916;12.834;2022-12-17T00:59:39;118.25;;;45.85;;
29824;SDS011;16713;52.916;12.834;2022-12-17T01:02:24;120.80;;;43.22;;
29824;SDS011;16713;52.916;12.834;2022-12-17T01:05:10;116.75;;;44.78;;
29824;SDS011;16713;52.916;12.834;2022-12-17T01:07:55;124.22;;;46.95;;
29824;SDS011;16713;52.916;12.834;2022-12-17T01:10:40;119.15;;;47.05;;
29824;SDS011;16713;52.916;12.834;2022-12-17T01:13:25;119.43;;;43.65;;
29824;SDS011;16713;52.916;12.834;2022-12-17T01:16:11;128.65;;;46.67;;
29824;SDS011;16713;52.916;12.834;2022-12-17T01:18:58;116.60;;;45.63;;
29824;SDS011;16713;52.916;12.834;2022-12-17T01:21:43;116.55;;;45.50;;
29824;SDS011;16713;52.916;12.834;2022-12-17T01:24:29;117.20;;;44.17;;
29824;SDS011;16713;52.916;12.834;2022-12-17T01:27:14;102.60;;;40.10;;
29824;SDS011;16713;52.916;12.834;2022-12-17T01:29:59;99.57;;;41.70;;
29824;SDS011;16713;52.916;12.834;2022-12-17T01:32:44;100.47;;;42.50;;
29824;SDS011;16713;52.916;12.834;2022-12-17T01:35:28;97.78;;;43.58;;
29824;SDS011;16713;52.916;12.834;2022-12-17T01:38:14;98.10;;;41.65;;
29824;SDS011;16713;52.916;12.834;2022-12-17T01:41:01;99.65;;;42.20;;
29824;SDS011;16713;52.916;12.834;2022-12-17T01:43:46;99.32;;;41.92;;
29824;SDS011;16713;52.916;12.834;2022-12-17T01:46:32;104.78;;;41.97;;
29824;SDS011;16713;52.916;12.834;2022-12-17T01:49:21;107.40;;;44.65;;
29824;SDS011;16713;52.916;12.834;2022-12-17T01:52:13;115.43;;;45.95;;
29824;SDS011;16713;52.916;12.834;2022-12-17T01:55:02;109.20;;;42.90;;
29824;SDS011;16713;52.916;12.834;2022-12-17T01:57:47;112.32;;;43.58;;
29824;SDS011;16713;52.916;12.834;2022-12-17T02:00:33;112.38;;;44.00;;
29824;SDS011;16713;52.916;12.834;2022-12-17T02:03:18;109.93;;;45.70;;
29824;SDS011;16713;52.916;12.834;2022-12-17T02:06:18;106.68;;;43.10;;
29824;SDS011;16713;52.916;12.834;2022-12-17T02:12:11;116.22;;;45.45;;
29824;SDS011;16713;52.916;12.834;2022-12-17T02:18:06;110.68;;;42.40;;
29824;SDS011;16713;52.916;12.834;2022-12-17T02:20:58;117.75;;;44.88;;
29824;SDS011;16713;52.916;12.834;2022-12-17T02:26:53;122.03;;;47.97;;
29824;SDS011;16713;52.916;12.834;2022-12-17T02:29:47;107.78;;;42.72;;
29824;SDS011;16713;52.916;12.834;2022-12-17T02:32:35;110.55;;;43.72;;
29824;SDS011;16713;52.916;12.834;2022-12-17T02:35:24;126.18;;;48.05;;
29824;SDS011;16713;52.916;12.834;2022-12-17T02:38:22;118.55;;;45.00;;
29824;SDS011;16713;52.916;12.834;2022-12-17T02:41:19;117.28;;;44.33;;
29824;SDS011;16713;52.916;12.834;2022-12-17T02:44:08;113.32;;;43.65;;
29824;SDS011;16713;52.916;12.834;2022-12-17T02:46:55;121.43;;;45.70;;
29824;SDS011;16713;52.916;12.834;2022-12-17T02:49:42;121.03;;;46.70;;
29824;SDS011;16713;52.916;12.834;2022-12-17T02:52:27;115.00;;;45.35;;
29824;SDS011;16713;52.916;12.834;2022-12-17T02:55:14;118.75;;;45.42;;
29824;SDS011;16713;52.916;12.834;2022-12-17T02:57:59;118.78;;;44.85;;
29824;SDS011;16713;52.916;12.834;2022-12-17T03:01:01;113.00;;;44.15;;
29824;SDS011;16713;52.916;12.834;2022-12-17T03:03:46;123.20;;;45.25;;
29824;SDS011;16713;52.916;12.834;2022-12-17T03:06:31;119.68;;;46.13;;
29824;SDS011;16713;52.916;12.834;2022-12-17T03:09:16;125.97;;;48.92;;
29824;SDS011;16713;52.916;12.834;2022-12-17T03:12:02;116.30;;;44.53;;
29824;SDS011;16713;52.916;12.834;2022-12-17T03:14:47;113.28;;;43.38;;
29824;SDS011;16713;52.916;12.834;2022-12-17T03:17:32;111.85;;;44.40;;
29824;SDS011;16713;52.916;12.834;2022-12-17T03:20:17;91.35;;;36.13;;
29824;SDS011;16713;52.916;12.834;2022-12-17T03:23:03;95.68;;;37.00;;
29824;SDS011;16713;52.916;12.834;2022-12-17T03:25:50;97.57;;;38.40;;
29824;SDS011;16713;52.916;12.834;2022-12-17T03:28:35;103.15;;;39.13;;
29824;SDS011;16713;52.916;12.834;2022-12-17T03:31:21;107.55;;;40.20;;
29824;SDS011;16713;52.916;12.834;2022-12-17T03:34:06;90.85;;;36.72;;
29824;SDS011;16713;52.916;12.834;2022-12-17T03:36:51;107.95;;;42.33;;
29824;SDS011;16713;52.916;12.834;2022-12-17T03:39:36;104.72;;;41.67;;
29824;SDS011;16713;52.916;12.834;2022-12-17T03:42:21;94.75;;;38.60;;
29824;SDS011;16713;52.916;12.834;2022-12-17T03:45:06;97.25;;;38.80;;
29824;SDS011;16713;52.916;12.834;2022-12-17T03:47:51;105.20;;;38.88;;
29824;SDS011;16713;52.916;12.834;2022-12-17T03:50:46;103.57;;;38.35;;
29824;SDS011;16713;52.916;12.834;2022-12-17T03:53:39;104.70;;;38.90;;
29824;SDS011;16713;52.916;12.834;2022-12-17T03:56:24;99.60;;;38.63;;
29824;SDS011;16713;52.916;12.834;2022-12-17T03:59:10;96.95;;;35.40;;
29824;SDS011;16713;52.916;12.834;2022-12-17T04:01:55;87.38;;;34.63;;
29824;SDS011;16713;52.916;12.834;2022-12-17T04:04:40;86.20;;;33.80;;
29824;SDS011;16713;52.916;12.834;2022-12-17T04:07:25;85.47;;;33.40;;
29824;SDS011;16713;52.916;12.834;2022-12-17T04:10:10;73.65;;;31.00;;
29824;SDS011;16713;52.916;12.834;2022-12-17T04:12:55;83.88;;;33.45;;
29824;SDS011;16713;52.916;12.834;2022-12-17T04:15:40;73.75;;;31.55;;
29824;SDS011;16713;52.916;12.834;2022-12-17T04:18:25;83.53;;;32.58;;
29824;SDS011;16713;52.916;12.834;2022-12-17T04:21:10;98.95;;;37.50;;
29824;SDS011;16713;52.916;12.834;2022-12-17T04:23:55;91.47;;;36.65;;
29824;SDS011;16713;52.916;12.834;2022-12-17T04:26:40;95.85;;;37.90;;
29824;SDS011;16713;52.916;12.834;2022-12-17T04:29:25;99.95;;;38.15;;
29824;SDS011;16713;52.916;12.834;2022-12-17T04:32:10;98.60;;;37.83;;
29824;SDS011;16713;52.916;12.834;2022-12-17T04:35:00;94.57;;;36.72;;
29824;SDS011;16713;52.916;12.834;2022-12-17T04:37:45;103.85;;;39.53;;
29824;SDS011;16713;52.916;12.834;2022-12-17T04:40:30;99.57;;;37.45;;
29824;SDS011;16713;52.916;12.834;2022-12-17T04:43:15;94.47;;;37.53;;
29824;SDS011;16713;52.916;12.834;2022-12-17T04:46:00;86.90;;;36.20;;
29824;SDS011;16713;52.916;12.834;2022-12-17T04:48:45;81.63;;;35.92;;
29824;SDS011;16713;52.916;12.834;2022-12-17T04:51:30;89.00;;;37.45;;
29824;SDS011;16713;52.916;12.834;2022-12-17T04:54:14;91.40;;;36.20;;
29824;SDS011;16713;52.916;12.834;2022-12-17T04:56:59;103.05;;;38.88;;
29824;SDS011;16713;52.916;12.834;2022-12-17T04:59:44;94.20;;;37.22;;
29824;SDS011;16713;52.916;12.834;2022-12-17T05:02:28;110.20;;;38.85;;
29824;SDS011;16713;52.916;12.834;2022-12-17T05:05:14;111.57;;;41.05;;
29824;SDS011;16713;52.916;12.834;2022-12-17T05:07:58;102.95;;;39.53;;
29824;SDS011;16713;52.916;12.834;2022-12-17T05:10:43;105.47;;;40.72;;
29824;SDS011;16713;52.916;12.834;2022-12-17T05:13:28;102.70;;;40.60;;
29824;SDS011;16713;52.916;12.834;2022-12-17T05:16:13;106.35;;;40.47;;
29824;SDS011;16713;52.916;12.834;2022-12-17T05:18:58;95.90;;;39.38;;
29824;SDS011;16713;52.916;12.834;2022-12-17T05:21:43;100.90;;;39.08;;
29824;SDS011;16713;52.916;12.834;2022-12-17T05:24:27;88.22;;;36.20;;
29824;SDS011;16713;52.916;12.834;2022-12-17T05:27:12;104.32;;;40.00;;
29824;SDS011;16713;52.916;12.834;2022-12-17T05:29:57;88.20;;;34.75;;
29824;SDS011;16713;52.916;12.834;2022-12-17T05:32:42;80.22;;;33.90;;
29824;SDS011;16713;52.916;12.834;2022-12-17T05:35:26;89.22;;;34.25;;
29824;SDS011;16713;52.916;12.834;2022-12-17T05:38:11;90.10;;;36.25;;
29824;SDS011;16713;52.916;12.834;2022-12-17T05:40:57;98.70;;;36.35;;
29824;SDS011;16713;52.916;12.834;2022-12-17T05:43:42;101.10;;;38.67;;
29824;SDS011;16713;52.916;12.834;2022-12-17T05:46:28;94.53;;;38.38;;
29824;SDS011;16713;52.916;12.834;2022-12-17T05:49:13;90.07;;;36.50;;
29824;SDS011;16713;52.916;12.834;2022-12-17T05:51:58;96.97;;;36.58;;
29824;SDS011;16713;52.916;12.834;2022-12-17T05:54:43;96.72;;;37.67;;
29824;SDS011;16713;52.916;12.834;2022-12-17T05:57:28;100.30;;;35.83;;
29824;SDS011;16713;52.916;12.834;2022-12-17T06:00:21;91.93;;;35.60;;
29824;SDS011;16713;52.916;12.834;2022-12-17T06:03:07;90.00;;;35.70;;
29824;SDS011;16713;52.916;12.834;2022-12-17T06:05:53;97.93;;;35.10;;
29824;SDS011;16713;52.916;12.834;2022-12-17T06:08:39;91.78;;;35.72;;
29824;SDS011;16713;52.916;12.834;2022-12-17T06:11:24;86.70;;;34.10;;
29824;SDS011;16713;52.916;12.834;2022-12-17T06:14:10;91.50;;;34.03;;
29824;SDS011;16713;52.916;12.834;2022-12-17T06:16:55;80.63;;;32.63;;
29824;SDS011;16713;52.916;12.834;2022-12-17T06:19:39;96.47;;;35.65;;
29824;SDS011;16713;52.916;12.834;2022-12-17T06:22:24;89.93;;;33.47;;
29824;SDS011;16713;52.916;12.834;2022-12-17T06:25:09;84.38;;;33.97;;
29824;SDS011;16713;52.916;12.834;2022-12-17T06:27:58;90.20;;;34.75;;
29824;SDS011;16713;52.916;12.834;2022-12-17T06:30:52;92.40;;;35.85;;
29824;SDS011;16713;52.916;12.834;2022-12-17T06:33:38;105.65;;;36.83;;
29824;SDS011;16713;52.916;12.834;2022-12-17T06:36:24;90.30;;;34.28;;
29824;SDS011;16713;52.916;12.834;2022-12-17T06:39:09;88.20;;;33.30;;
29824;SDS011;16713;52.916;12.834;2022-12-17T06:41:54;86.30;;;35.00;;
29824;SDS011;16713;52.916;12.834;2022-12-17T06:44:38;82.95;;;32.72;;
29824;SDS011;16713;52.916;12.834;2022-12-17T06:47:23;76.78;;;32.95;;
29824;SDS011;16713;52.916;12.834;2022-12-17T06:50:08;104.80;;;35.92;;
29824;SDS011;16713;52.916;12.834;2022-12-17T06:52:58;90.18;;;33.72;;
29824;SDS011;16713;52.916;12.834;2022-12-17T06:55:47;79.65;;;31.20;;
29824;SDS011;16713;52.916;12.834;2022-12-17T06:58:32;81.97;;;31.98;;
29824;SDS011;16713;52.916;12.834;2022-12-17T07:01:17;88.78;;;32.00;;
29824;SDS011;16713;52.916;12.834;2022-12-17T07:04:03;84.90;;;32.20;;
29824;SDS011;16713;52.916;12.834;2022-12-17T07:06:48;87.80;;;31.75;;
29824;SDS011;16713;52.916;12.834;2022-12-17T07:09:33;69.80;;;27.48;;
29824;SDS011;16713;52.916;12.834;2022-12-17T07:12:19;80.45;;;31.58;;
29824;SDS011;16713;52.916;12.834;2022-12-17T07:15:04;71.30;;;27.85;;
29824;SDS011;16713;52.916;12.834;2022-12-17T07:17:55;77.18;;;30.48;;
29824;SDS011;16713;52.916;12.834;2022-12-17T07:20:45;87.32;;;32.25;;
29824;SDS011;16713;52.916;12.834;2022-12-17T07:23:31;80.90;;;31.42;;
29824;SDS011;16713;52.916;12.834;2022-12-17T07:26:17;90.57;;;31.65;;
29824;SDS011;16713;52.916;12.834;2022-12-17T07:29:02;89.15;;;32.55;;
29824;SDS011;16713;52.916;12.834;2022-12-17T07:31:47;89.68;;;34.38;;
29824;SDS011;16713;52.916;12.834;2022-12-17T07:34:32;87.05;;;30.98;;
29824;SDS011;16713;52.916;12.834;2022-12-17T07:40:18;75.45;;;29.92;;
29824;SDS011;16713;52.916;12.834;2022-12-17T07:43:14;83.68;;;30.75;;
29824;SDS011;16713;52.916;12.834;2022-12-17T07:46:01;74.90;;;29.30;;
29824;SDS011;16713;52.916;12.834;2022-12-17T07:48:46;77.78;;;30.23;;
29824;SDS011;16713;52.916;12.834;2022-12-17T07:51:31;76.13;;;30.92;;
29824;SDS011;16713;52.916;12.834;2022-12-17T07:54:16;75.55;;;29.92;;
29824;SDS011;16713;52.916;12.834;2022-12-17T07:57:01;74.00;;;29.52;;
29824;SDS011;16713;52.916;12.834;2022-12-17T07:59:45;78.18;;;30.20;;
29824;SDS011;16713;52.916;12.834;2022-12-17T08:02:30;83.28;;;32.72;;
29824;SDS011;16713;52.916;12.834;2022-12-17T08:05:15;72.93;;;29.63;;
29824;SDS011;16713;52.916;12.834;2022-12-17T08:08:09;82.70;;;30.10;;
29824;SDS011;16713;52.916;12.834;2022-12-17T08:10:56;81.55;;;30.98;;
29824;SDS011;16713;52.916;12.834;2022-12-17T08:13:41;81.05;;;31.10;;
29824;SDS011;16713;52.916;12.834;2022-12-17T08:16:26;76.22;;;30.33;;
29824;SDS011;16713;52.916;12.834;2022-12-17T08:19:12;81.75;;;30.10;;
29824;SDS011;16713;52.916;12.834;2022-12-17T08:21:57;70.80;;;27.38;;
29824;SDS011;16713;52.916;12.834;2022-12-17T08:24:42;81.63;;;30.98;;
29824;SDS011;16713;52.916;12.834;2022-12-17T08:27:27;81.03;;;32.10;;
29824;SDS011;16713;52.916;12.834;2022-12-17T08:30:12;79.82;;;32.90;;
29824;SDS011;16713;52.916;12.834;2022-12-17T08:33:03;95.90;;;35.15;;
29824;SDS011;16713;52.916;12.834;2022-12-17T08:35:52;85.40;;;35.13;;
29824;SDS011;16713;52.916;12.834;2022-12-17T08:38:38;83.70;;;30.80;;
29824;SDS011;16713;52.916;12.834;2022-12-17T08:41:37;77.05;;;30.70;;
29824;SDS011;16713;52.916;12.834;2022-12-17T08:44:29;84.43;;;30.77;;
29824;SDS011;16713;52.916;12.834;2022-12-17T08:47:14;73.90;;;30.40;;
29824;SDS011;16713;52.916;12.834;2022-12-17T08:49:59;82.63;;;31.33;;
29824;SDS011;16713;52.916;12.834;2022-12-17T08:52:43;76.20;;;28.98;;
29824;SDS011;16713;52.916;12.834;2022-12-17T08:55:28;72.45;;;28.83;;
29824;SDS011;16713;52.916;12.834;2022-12-17T08:58:13;78.65;;;30.02;;
29824;SDS011;16713;52.916;12.834;2022-12-17T09:00:58;76.72;;;29.60;;
29824;SDS011;16713;52.916;12.834;2022-12-17T09:03:47;67.90;;;27.88;;
29824;SDS011;16713;52.916;12.834;2022-12-17T09:06:31;75.95;;;28.67;;
29824;SDS011;16713;52.916;12.834;2022-12-17T09:09:16;75.03;;;29.45;;
29824;SDS011;16713;52.916;12.834;2022-12-17T09:12:01;70.45;;;28.48;;
29824;SDS011;16713;52.916;12.834;2022-12-17T09:14:46;72.97;;;28.33;;
29824;SDS011;16713;52.916;12.834;2022-12-17T09:17:31;72.53;;;28.23;;
29824;SDS011;16713;52.916;12.834;2022-12-17T09:20:16;68.00;;;27.88;;
29824;SDS011;16713;52.916;12.834;2022-12-17T09:23:01;80.47;;;29.52;;
29824;SDS011;16713;52.916;12.834;2022-12-17T09:25:52;74.53;;;29.15;;
29824;SDS011;16713;52.916;12.834;2022-12-17T09:28:38;77.90;;;28.92;;
29824;SDS011;16713;52.916;12.834;2022-12-17T09:31:23;68.97;;;26.17;;
29824;SDS011;16713;52.916;12.834;2022-12-17T09:34:10;67.82;;;25.95;;
29824;SDS011;16713;52.916;12.834;2022-12-17T09:36:56;61.38;;;25.73;;
29824;SDS011;16713;52.916;12.834;2022-12-17T09:39:40;66.15;;;26.20;;
29824;SDS011;16713;52.916;12.834;2022-12-17T09:51:43;63.55;;;24.40;;
29824;SDS011;16713;52.916;12.834;2022-12-17T09:57:27;58.30;;;25.77;;
29824;SDS011;16713;52.916;12.834;2022-12-17T10:00:20;61.55;;;23.98;;
29824;SDS011;16713;52.916;12.834;2022-12-17T10:03:15;60.55;;;23.65;;
29824;SDS011;16713;52.916;12.834;2022-12-17T10:06:09;58.60;;;23.52;;
29824;SDS011;16713;52.916;12.834;2022-12-17T10:08:58;59.10;;;22.65;;
29824;SDS011;16713;52.916;12.834;2022-12-17T10:11:45;46.35;;;19.77;;
29824;SDS011;16713;52.916;12.834;2022-12-17T10:14:31;48.90;;;20.88;;
29824;SDS011;16713;52.916;12.834;2022-12-17T10:17:18;56.92;;;23.13;;
29824;SDS011;16713;52.916;12.834;2022-12-17T10:20:23;54.50;;;23.75;;
29824;SDS011;16713;52.916;12.834;2022-12-17T10:23:31;54.03;;;21.83;;
29824;SDS011;16713;52.916;12.834;2022-12-17T10:26:18;50.20;;;20.67;;
29824;SDS011;16713;52.916;12.834;2022-12-17T10:29:13;51.80;;;21.00;;
29824;SDS011;16713;52.916;12.834;2022-12-17T10:31:59;52.72;;;21.52;;
29824;SDS011;16713;52.916;12.834;2022-12-17T10:34:55;51.28;;;22.10;;
29824;SDS011;16713;52.916;12.834;2022-12-17T10:37:40;44.90;;;19.88;;
29824;SDS011;16713;52.916;12.834;2022-12-17T10:40:27;47.90;;;20.17;;
29824;SDS011;16713;52.916;12.834;2022-12-17T10:43:28;43.53;;;18.25;;
29824;SDS011;16713;52.916;12.834;2022-12-17T10:49:22;41.05;;;18.98;;
29824;SDS011;16713;52.916;12.834;2022-12-17T10:52:19;43.00;;;17.98;;
29824;SDS011;16713;52.916;12.834;2022-12-17T10:55:22;49.80;;;18.83;;
29824;SDS011;16713;52.916;12.834;2022-12-17T10:58:13;45.08;;;17.92;;
29824;SDS011;16713;52.916;12.834;2022-12-17T11:01:01;48.33;;;19.60;;
29824;SDS011;16713;52.916;12.834;2022-12-17T11:03:51;46.92;;;19.50;;
29824;SDS011;16713;52.916;12.834;2022-12-17T11:06:44;44.15;;;17.70;;
29824;SDS011;16713;52.916;12.834;2022-12-17T11:12:46;44.78;;;19.83;;
29824;SDS011;16713;52.916;12.834;2022-12-17T11:21:41;52.63;;;19.90;;
29824;SDS011;16713;52.916;12.834;2022-12-17T11:24:31;50.25;;;19.60;;
29824;SDS011;16713;52.916;12.834;2022-12-17T11:27:24;49.05;;;20.23;;
29824;SDS011;16713;52.916;12.834;2022-12-17T11:30:14;55.03;;;21.45;;
29824;SDS011;16713;52.916;12.834;2022-12-17T11:48:08;60.10;;;24.40;;
29824;SDS011;16713;52.916;12.834;2022-12-17T11:51:12;59.97;;;24.52;;
29824;SDS011;16713;52.916;12.834;2022-12-17T11:54:14;65.78;;;24.98;;
29824;SDS011;16713;52.916;12.834;2022-12-17T12:00:17;68.30;;;26.38;;
29824;SDS011;16713;52.916;12.834;2022-12-17T12:09:23;60.67;;;23.80;;
29824;SDS011;16713;52.916;12.834;2022-12-17T12:15:39;64.72;;;25.25;;
29824;SDS011;16713;52.916;12.834;2022-12-17T12:22:25;57.20;;;23.15;;
29824;SDS011;16713;52.916;12.834;2022-12-17T12:25:52;48.90;;;21.30;;
29824;SDS011;16713;52.916;12.834;2022-12-17T12:28:49;55.17;;;21.08;;
29824;SDS011;16713;52.916;12.834;2022-12-17T12:31:43;50.10;;;20.83;;
29824;SDS011;16713;52.916;12.834;2022-12-17T12:34:52;55.25;;;21.98;;
29824;SDS011;16713;52.916;12.834;2022-12-17T12:37:39;55.38;;;21.13;;
29824;SDS011;16713;52.916;12.834;2022-12-17T12:40:31;53.00;;;21.95;;
29824;SDS011;16713;52.916;12.834;2022-12-17T12:43:27;53.85;;;21.75;;
29824;SDS011;16713;52.916;12.834;2022-12-17T12:49:24;61.08;;;24.20;;
29824;SDS011;16713;52.916;12.834;2022-12-17T12:52:23;52.22;;;21.60;;
29824;SDS011;16713;52.916;12.834;2022-12-17T12:55:09;60.35;;;22.75;;
29824;SDS011;16713;52.916;12.834;2022-12-17T13:00:51;53.17;;;23.65;;
29824;SDS011;16713;52.916;12.834;2022-12-17T13:11:41;67.55;;;24.95;;
29824;SDS011;16713;52.916;12.834;2022-12-17T13:14:10;73.20;;;28.52;;
29824;SDS011;16713;52.916;12.834;2022-12-17T13:16:52;69.43;;;27.27;;
29824;SDS011;16713;52.916;12.834;2022-12-17T13:29:56;82.15;;;28.40;;
29824;SDS011;16713;52.916;12.834;2022-12-17T13:41:14;89.05;;;29.15;;
29824;SDS011;16713;52.916;12.834;2022-12-17T13:43:44;79.97;;;30.58;;
29824;SDS011;16713;52.916;12.834;2022-12-17T13:46:43;87.53;;;29.63;;
29824;SDS011;16713;52.916;12.834;2022-12-17T13:49:17;82.55;;;29.88;;
29824;SDS011;16713;52.916;12.834;2022-12-17T13:51:46;77.97;;;28.85;;
29824;SDS011;16713;52.916;12.834;2022-12-17T13:54:14;93.10;;;32.20;;
29824;SDS011;16713;52.916;12.834;2022-12-17T13:56:43;84.50;;;28.73;;
29824;SDS011;16713;52.916;12.834;2022-12-17T13:59:18;80.50;;;31.40;;
29824;SDS011;16713;52.916;12.834;2022-12-17T14:01:46;77.82;;;30.33;;
29824;SDS011;16713;52.916;12.834;2022-12-17T14:04:24;76.35;;;29.20;;
29824;SDS011;16713;52.916;12.834;2022-12-17T14:06:57;80.03;;;28.38;;
29824;SDS011;16713;52.916;12.834;2022-12-17T14:09:30;73.40;;;26.27;;
29824;SDS011;16713;52.916;12.834;2022-12-17T14:12:03;77.00;;;26.90;;
29824;SDS011;16713;52.916;12.834;2022-12-17T14:17:26;70.25;;;24.20;;
29824;SDS011;16713;52.916;12.834;2022-12-17T14:22:37;60.53;;;23.13;;
29824;SDS011;16713;52.916;12.834;2022-12-17T14:25:21;58.08;;;23.38;;
29824;SDS011;16713;52.916;12.834;2022-12-17T14:27:59;61.00;;;22.65;;
29824;SDS011;16713;52.916;12.834;2022-12-17T14:33:31;51.85;;;20.67;;
29824;SDS011;16713;52.916;12.834;2022-12-17T14:35:59;49.63;;;20.02;;
29824;SDS011;16713;52.916;12.834;2022-12-17T14:41:18;45.33;;;18.15;;
29824;SDS011;16713;52.916;12.834;2022-12-17T14:44:03;50.65;;;21.10;;
29824;SDS011;16713;52.916;12.834;2022-12-17T14:46:31;55.92;;;21.27;;
29824;SDS011;16713;52.916;12.834;2022-12-17T14:49:00;54.38;;;21.13;;
29824;SDS011;16713;52.916;12.834;2022-12-17T14:51:31;58.45;;;22.00;;
29824;SDS011;16713;52.916;12.834;2022-12-17T14:54:15;54.95;;;22.13;;
29824;SDS011;16713;52.916;12.834;2022-12-17T14:56:51;55.60;;;21.77;;
29824;SDS011;16713;52.916;12.834;2022-12-17T14:59:23;64.07;;;25.15;;
29824;SDS011;16713;52.916;12.834;2022-12-17T15:01:51;75.53;;;27.40;;
29824;SDS011;16713;52.916;12.834;2022-12-17T15:04:21;66.70;;;24.13;;
29824;SDS011;16713;52.916;12.834;2022-12-17T15:06:48;69.25;;;25.40;;
29824;SDS011;16713;52.916;12.834;2022-12-17T15:09:19;67.70;;;25.45;;
29824;SDS011;16713;52.916;12.834;2022-12-17T15:11:45;59.13;;;23.02;;
29824;SDS011;16713;52.916;12.834;2022-12-17T15:14:12;69.18;;;25.27;;
29824;SDS011;16713;52.916;12.834;2022-12-17T15:16:38;74.18;;;26.95;;
29824;SDS011;16713;52.916;12.834;2022-12-17T15:19:05;78.20;;;27.98;;
29824;SDS011;16713;52.916;12.834;2022-12-17T15:21:31;81.63;;;29.05;;
29824;SDS011;16713;52.916;12.834;2022-12-17T15:23:58;86.93;;;30.25;;
29824;SDS011;16713;52.916;12.834;2022-12-17T15:26:25;86.60;;;31.02;;
29824;SDS011;16713;52.916;12.834;2022-12-17T15:28:51;86.07;;;27.83;;
29824;SDS011;16713;52.916;12.834;2022-12-17T15:31:18;89.78;;;29.38;;
29824;SDS011;16713;52.916;12.834;2022-12-17T15:33:50;89.00;;;28.63;;
29824;SDS011;16713;52.916;12.834;2022-12-17T15:36:17;84.75;;;30.02;;
29824;SDS011;16713;52.916;12.834;2022-12-17T15:38:43;90.32;;;31.27;;
29824;SDS011;16713;52.916;12.834;2022-12-17T15:41:11;88.22;;;30.02;;
29824;SDS011;16713;52.916;12.834;2022-12-17T15:43:56;80.07;;;29.42;;
29824;SDS011;16713;52.916;12.834;2022-12-17T15:46:22;94.72;;;30.42;;
29824;SDS011;16713;52.916;12.834;2022-12-17T15:48:49;79.68;;;28.98;;
29824;SDS011;16713;52.916;12.834;2022-12-17T15:51:16;69.50;;;25.88;;
29824;SDS011;16713;52.916;12.834;2022-12-17T15:53:45;68.38;;;25.10;;
29824;SDS011;16713;52.916;12.834;2022-12-17T15:56:17;62.22;;;24.90;;
29824;SDS011;16713;52.916;12.834;2022-12-17T15:58:46;72.43;;;25.50;;
29824;SDS011;16713;52.916;12.834;2022-12-17T16:01:12;66.40;;;24.75;;
29824;SDS011;16713;52.916;12.834;2022-12-17T16:03:39;69.97;;;24.90;;
29824;SDS011;16713;52.916;12.834;2022-12-17T16:06:06;58.45;;;22.90;;
29824;SDS011;16713;52.916;12.834;2022-12-17T16:08:32;57.53;;;24.85;;
29824;SDS011;16713;52.916;12.834;2022-12-17T16:10:59;67.97;;;24.23;;
29824;SDS011;16713;52.916;12.834;2022-12-17T16:13:26;57.95;;;23.60;;
29824;SDS011;16713;52.916;12.834;2022-12-17T16:15:55;56.08;;;21.15;;
29824;SDS011;16713;52.916;12.834;2022-12-17T16:18:29;53.60;;;21.40;;
29824;SDS011;16713;52.916;12.834;2022-12-17T16:21:02;55.40;;;20.95;;
29824;SDS011;16713;52.916;12.834;2022-12-17T16:23:30;62.00;;;23.23;;
29824;SDS011;16713;52.916;12.834;2022-12-17T16:25:57;55.40;;;21.90;;
29824;SDS011;16713;52.916;12.834;2022-12-17T16:28:24;59.97;;;22.92;;
29824;SDS011;16713;52.916;12.834;2022-12-17T16:33:25;61.80;;;22.63;;
29824;SDS011;16713;52.916;12.834;2022-12-17T16:35:59;56.80;;;21.27;;
29824;SDS011;16713;52.916;12.834;2022-12-17T16:38:26;55.25;;;20.70;;
29824;SDS011;16713;52.916;12.834;2022-12-17T16:40:53;58.28;;;22.70;;
29824;SDS011;16713;52.916;12.834;2022-12-17T16:43:21;65.63;;;22.92;;
29824;SDS011;16713;52.916;12.834;2022-12-17T16:45:48;59.42;;;22.65;;
29824;SDS011;16713;52.916;12.834;2022-12-17T16:48:18;66.43;;;23.85;;
29824;SDS011;16713;52.916;12.834;2022-12-17T16:50:47;72.97;;;24.42;;
29824;SDS011;16713;52.916;12.834;2022-12-17T16:53:15;61.35;;;24.00;;
29824;SDS011;16713;52.916;12.834;2022-12-17T16:55:45;62.58;;;22.98;;
29824;SDS011;16713;52.916;12.834;2022-12-17T16:58:14;66.30;;;22.85;;
29824;SDS011;16713;52.916;12.834;2022-12-17T17:00:42;62.08;;;23.05;;
29824;SDS011;16713;52.916;12.834;2022-12-17T17:03:08;77.93;;;25.15;;
29824;SDS011;16713;52.916;12.834;2022-12-17T17:05:36;77.45;;;26.45;;
29824;SDS011;16713;52.916;12.834;2022-12-17T17:08:04;74.53;;;24.45;;
29824;SDS011;16713;52.916;12.834;2022-12-17T17:10:32;77.43;;;26.55;;
29824;SDS011;16713;52.916;12.834;2022-12-17T17:13:01;62.47;;;25.27;;
29824;SDS011;16713;52.916;12.834;2022-12-17T17:15:27;62.17;;;22.70;;
29824;SDS011;16713;52.916;12.834;2022-12-17T17:17:54;62.25;;;24.13;;
29824;SDS011;16713;52.916;12.834;2022-12-17T17:20:27;67.70;;;22.58;;
29824;SDS011;16713;52.916;12.834;2022-12-17T17:22:57;60.58;;;21.70;;
29824;SDS011;16713;52.916;12.834;2022-12-17T17:25:23;67.20;;;23.98;;
29824;SDS011;16713;52.916;12.834;2022-12-17T17:28:10;65.00;;;23.25;;
29824;SDS011;16713;52.916;12.834;2022-12-17T17:30:36;61.17;;;22.67;;
29824;SDS011;16713;52.916;12.834;2022-12-17T17:33:03;62.47;;;23.27;;